Time;durP1;ratioP1;P1;durP2;ratioP2;P2;SDS_P1;SDS_P2;PMS_P1;PMS_P2;Temp;Humidity;BMP_temperature;BMP_pressure;BME280_temperature;BME280_humidity;BME280_pressure;Samples;Min_cycle;Max_cycle;Signal;HPM_P1;HPM_P2
2022/12/29 00:00:04;;;;;;;;;;;;;;;;;;1023529;29;20330;-76
2022/12/29 00:00:35;;;;;;;;;;;;;;;;;;1023164;28;19920;-77
2022/12/29 00:01:06;;;;;;;;;;;;;;;;;;1023152;29;20694;-76
2022/12/29 00:01:37;;;;;;;;;;;;;;;;;;1023493;28;19915;-77
2022/12/29 00:02:08;;;;;;;;;;;;;;;;;;1026956;28;19914;-77
2022/12/29 00:02:39;;;;;;;;;;;;;;;;;;1027600;28;20053;-77
2022/12/29 00:03:09;;;;;;;;;;;;;;;;;;1027576;28;19960;-75
2022/12/29 00:03:40;;;;;;;;;;;;;;;;;;1027223;28;20344;-77
2022/12/29 00:04:11;;;;;;;;;;;;;;;;;;1027122;28;19949;-77
2022/12/29 00:04:42;;;;;;;;;;;;;;;;;;1027083;28;20403;-77
2022/12/29 00:05:13;;;;;;;;;;;;;;;;;;1027394;28;19945;-77
2022/12/29 00:05:44;;;;;;;;;;;;;;;;;;1027605;28;19914;-76
2022/12/29 00:06:15;;;;;;;;;;;;;;;;;;1023141;29;20454;-77
2022/12/29 00:06:45;;;;;;;;;;;;;;;;;;1022740;29;19918;-76
2022/12/29 00:07:16;;;;;;;;;;;;;;;;;;1019221;29;19961;-77
2022/12/29 00:07:47;;;;;;;;;;;;;;;;;;1019456;29;19946;-77
2022/12/29 00:08:18;;;;;;;;;;;;;;;;;;1020296;29;19954;-77
2022/12/29 00:08:49;;;;;;;;;;;;;;;;;;1019123;29;20008;-76
2022/12/29 00:09:20;;;;;;;;;;;;;;;;;;1019565;29;19919;-77
2022/12/29 00:09:51;;;;;;;;;;;;;;;;;;1019829;28;19954;-76
2022/12/29 00:10:21;;;;;;;;;;;;;;;;;;1027621;28;19914;-76
2022/12/29 00:10:52;;;;;;;;;;;;;;;;;;1028350;28;19914;-76
2022/12/29 00:11:23;;;;;;;;;;;;;;;;;;1019306;29;20401;-76
2022/12/29 00:11:54;;;;;;;;;;;;;;;;;;1019097;29;19915;-77
2022/12/29 00:15:36;;;;;;;;;;;;;;;;;;1020816;29;19915;-77
2022/12/29 00:15:44;;;;;;;;;;;;;;;;;;1027800;28;19933;-76
2022/12/29 00:16:15;;;;;;;;;;;;;;;;;;1023225;29;20295;-76
2022/12/29 00:16:46;;;;;;;;;;;;;;;;;;1023003;29;19906;-76
2022/12/29 00:17:17;;;;;;;;;;;;;;;;;;1023539;29;20642;-76
2022/12/29 00:17:48;;;;;;;;;;;;;;;;;;1022319;29;19954;-76
2022/12/29 00:18:19;;;;;;;;;;;;;;;;;;1020114;29;20617;-76
2022/12/29 00:18:49;;;;;;;;;;;;;;;;;;1019229;29;20034;-76
2022/12/29 00:35:10;;;;;;;;;;;;;;;;;;1027659;28;19917;-77
2022/12/29 00:35:41;;;;;;;;;;;;;;;;;;1023015;29;19906;-77
2022/12/29 00:36:11;;;;;;;;;;;;;;;;;;1023069;29;19910;-77
2022/12/29 00:36:42;;;;;;;;;;;;;;;;;;1023825;29;19914;-77
2022/12/29 00:37:13;;;;;;;;;;;;;;;;;;1023480;29;20001;-77
2022/12/29 00:44:31;;;;;;;;;;;;;;;;;;1024186;29;19922;-76
2022/12/29 00:45:02;;;;;;;;;;;;;;;;;;1027345;28;19910;-76
2022/12/29 00:45:33;;;;;;;;;;;;;;;;;;1023046;28;19910;-76
2022/12/29 00:46:04;;;;;;;;;;;;;;;;;;1023195;29;19918;-78
2022/12/29 00:46:35;;;;;;;;;;;;;;;;;;1020444;29;20662;-76
2022/12/29 00:47:05;;;;;;;;;;;;;;;;;;1017328;29;19946;-76
2022/12/29 00:47:36;;;;;;;;;;;;;;;;;;1019242;29;19946;-77
2022/12/29 00:48:07;;;;;;;;;;;;;;;;;;1022931;29;20054;-76
2022/12/29 00:49:30;;;;;;;;;;;;;;;;;;1031717;28;19957;-75
2022/12/29 00:50:01;;;;;;;;;;;;;;;;;;1028125;28;19910;-77
2022/12/29 00:50:33;;;;;;;;;;;;;;;;;;1022839;29;19917;-76
2022/12/29 00:51:03;;;;;;;;;;;;;;;;;;1023126;29;19938;-77
2022/12/29 00:51:34;;;;;;;;;;;;;;;;;;1022883;29;20424;-76
2022/12/29 00:52:05;;;;;;;;;;;;;;;;;;1024051;28;19911;-76
2022/12/29 00:52:36;;;;;;;;;;;;;;;;;;1023062;29;19910;-76
2022/12/29 00:53:07;;;;;;;;;;;;;;;;;;1023314;28;19945;-77
2022/12/29 00:53:38;;;;;;;;;;;;;;;;;;1022949;29;19969;-76
2022/12/29 00:54:09;;;;;;;;;;;;;;;;;;1023329;29;19917;-76
2022/12/29 00:54:39;;;;;;;;;;;;;;;;;;1023909;28;19997;-76
2022/12/29 00:55:10;;;;;;;;;;;;;;;;;;1023120;29;19911;-76
2022/12/29 00:55:41;;;;;;;;;;;;;;;;;;1026484;28;19910;-77
2022/12/29 00:56:12;;;;;;;;;;;;;;;;;;1027204;28;19918;-76
2022/12/29 00:56:43;;;;;;;;;;;;;;;;;;1026976;28;19914;-77
2022/12/29 00:57:14;;;;;;;;;;;;;;;;;;1028063;28;19925;-77
2022/12/29 00:57:45;;;;;;;;;;;;;;;;;;1022988;29;19954;-77
2022/12/29 00:58:16;;;;;;;;;;;;;;;;;;1023301;29;19919;-77
2022/12/29 00:58:47;;;;;;;;;;;;;;;;;;1022603;29;19953;-77
2022/12/29 00:59:17;;;;;;;;;;;;;;;;;;1023401;28;19918;-77
2022/12/29 00:59:48;;;;;;;;;;;;;;;;;;1027341;28;19914;-76
2022/12/29 01:00:19;;;;;;;;;;;;;;;;;;1027134;28;19917;-78
2022/12/29 01:00:50;;;;;;;;;;;;;;;;;;1026721;28;20738;-77
2022/12/29 01:01:21;;;;;;;;;;;;;;;;;;1027038;28;19914;-77
2022/12/29 01:01:52;;;;;;;;;;;;;;;;;;1026824;28;20582;-78
2022/12/29 01:02:23;;;;;;;;;;;;;;;;;;1027445;28;19986;-78
2022/12/29 01:02:54;;;;;;;;;;;;;;;;;;1026948;28;19914;-77
2022/12/29 01:03:24;;;;;;;;;;;;;;;;;;1026971;28;20378;-77
2022/12/29 01:03:55;;;;;;;;;;;;;;;;;;1026991;28;20024;-77
2022/12/29 01:04:26;;;;;;;;;;;;;;;;;;1026943;28;20305;-77
2022/12/29 01:04:57;;;;;;;;;;;;;;;;;;1023354;29;19989;-77
2022/12/29 01:05:28;;;;;;;;;;;;;;;;;;1023283;28;20383;-77
2022/12/29 01:05:59;;;;;;;;;;;;;;;;;;1022830;29;19914;-77
2022/12/29 01:06:29;;;;;;;;;;;;;;;;;;1022992;28;20594;-78
2022/12/29 01:07:00;;;;;;;;;;;;;;;;;;1027168;28;19914;-77
2022/12/29 01:07:31;;;;;;;;;;;;;;;;;;1026587;28;19958;-78
2022/12/29 01:08:02;;;;;;;;;;;;;;;;;;1024098;28;20103;-77
2022/12/29 01:08:33;;;;;;;;;;;;;;;;;;1027263;28;19922;-76
2022/12/29 01:10:11;;;;;;;;;;;;;;;;;;1024572;28;19925;-77
2022/12/29 01:10:42;;;;;;;;;;;;;;;;;;1027227;28;20060;-77
2022/12/29 01:11:13;;;;;;;;;;;;;;;;;;1028133;28;19938;-76
2022/12/29 01:11:44;;;;;;;;;;;;;;;;;;1027856;28;19949;-77
2022/12/29 01:12:15;;;;;;;;;;;;;;;;;;1028288;28;19914;-76
2022/12/29 01:12:47;;;;;;;;;;;;;;;;;;1024077;29;20018;-77
2022/12/29 01:13:18;;;;;;;;;;;;;;;;;;1024083;29;19921;-76
2022/12/29 01:13:48;;;;;;;;;;;;;;;;;;1023365;29;19938;-77
2022/12/29 01:14:19;;;;;;;;;;;;;;;;;;1024137;28;19923;-76
2022/12/29 01:14:50;;;;;;;;;;;;;;;;;;1027554;28;19914;-76
2022/12/29 01:15:21;;;;;;;;;;;;;;;;;;1028999;28;19914;-77
2022/12/29 01:15:52;;;;;;;;;;;;;;;;;;1027525;28;19947;-77
2022/12/29 01:16:23;;;;;;;;;;;;;;;;;;1027741;28;20005;-77
2022/12/29 01:16:54;;;;;;;;;;;;;;;;;;1027457;28;19992;-75
2022/12/29 01:17:25;;;;;;;;;;;;;;;;;;1027515;28;19910;-76
2022/12/29 01:17:58;;;;;;;;;;;;;;;;;;1027981;28;19910;-78
2022/12/29 01:18:29;;;;;;;;;;;;;;;;;;1027969;28;19906;-76
2022/12/29 01:19:00;;;;;;;;;;;;;;;;;;1027707;28;19914;-76
2022/12/29 01:19:31;;;;;;;;;;;;;;;;;;1023722;29;19910;-77
2022/12/29 01:20:02;;;;;;;;;;;;;;;;;;1023734;29;19918;-76
2022/12/29 01:20:33;;;;;;;;;;;;;;;;;;1024210;29;19911;-77
2022/12/29 01:21:03;;;;;;;;;;;;;;;;;;1023811;28;19918;-77
2022/12/29 01:21:34;;;;;;;;;;;;;;;;;;1027855;28;19970;-77
2022/12/29 01:22:05;;;;;;;;;;;;;;;;;;1027384;28;20024;-76
2022/12/29 01:22:36;;;;;;;;;;;;;;;;;;1023968;28;19906;-76
2022/12/29 01:23:07;;;;;;;;;;;;;;;;;;1028346;28;20350;-77
2022/12/29 01:23:38;;;;;;;;;;;;;;;;;;1028340;28;19906;-77
2022/12/29 01:24:09;;;;;;;;;;;;;;;;;;1027635;28;19957;-78
2022/12/29 01:24:39;;;;;;;;;;;;;;;;;;1028362;28;20013;-76
2022/12/29 01:25:10;;;;;;;;;;;;;;;;;;1023371;29;19994;-77
2022/12/29 01:25:41;;;;;;;;;;;;;;;;;;1023707;29;19911;-78
2022/12/29 01:26:12;;;;;;;;;;;;;;;;;;1027229;28;20021;-77
2022/12/29 01:26:43;;;;;;;;;;;;;;;;;;1027739;28;20499;-76
2022/12/29 01:27:14;;;;;;;;;;;;;;;;;;1027672;28;19916;-77
2022/12/29 01:27:45;;;;;;;;;;;;;;;;;;1023456;29;20338;-77
2022/12/29 01:28:15;;;;;;;;;;;;;;;;;;1023831;29;19910;-77
2022/12/29 01:28:46;;;;;;;;;;;;;;;;;;1022513;29;20320;-77
2022/12/29 01:29:17;;;;;;;;;;;;;;;;;;1023396;29;19918;-76
2022/12/29 01:29:48;;;;;;;;;;;;;;;;;;1023540;29;20693;-76
2022/12/29 01:30:19;;;;;;;;;;;;;;;;;;1023834;28;20386;-76
2022/12/29 01:30:50;;;;;;;;;;;;;;;;;;1027508;28;19910;-77
2022/12/29 01:31:21;;;;;;;;;;;;;;;;;;1024515;28;20457;-77
2022/12/29 01:31:52;;;;;;;;;;;;;;;;;;1019730;29;19922;-77
2022/12/29 01:32:22;;;;;;;;;;;;;;;;;;1023971;29;19910;-77
2022/12/29 01:32:53;;;;;;;;;;;;;;;;;;1023667;28;20401;-76
2022/12/29 01:33:24;;;;;;;;;;;;;;;;;;1024107;28;19945;-77
2022/12/29 01:33:55;;;;;;;;;;;;;;;;;;1028695;28;19913;-77
2022/12/29 01:34:26;;;;;;;;;;;;;;;;;;1027645;28;19910;-77
2022/12/29 01:34:57;;;;;;;;;;;;;;;;;;1027792;28;19910;-76
2022/12/29 01:35:28;;;;;;;;;;;;;;;;;;1028036;28;19957;-77
2022/12/29 01:35:58;;;;;;;;;;;;;;;;;;1027911;28;19917;-76
2022/12/29 01:36:29;;;;;;;;;;;;;;;;;;1028364;28;19914;-77
2022/12/29 01:37:00;;;;;;;;;;;;;;;;;;1023780;29;19986;-77
2022/12/29 01:37:31;;;;;;;;;;;;;;;;;;1024253;28;19982;-77
2022/12/29 01:38:02;;;;;;;;;;;;;;;;;;1027734;28;19914;-76
2022/12/29 01:38:33;;;;;;;;;;;;;;;;;;1023939;29;20029;-76
2022/12/29 01:39:04;;;;;;;;;;;;;;;;;;1024262;29;19915;-76
2022/12/29 01:39:35;;;;;;;;;;;;;;;;;;1023834;28;19914;-77
2022/12/29 01:40:05;;;;;;;;;;;;;;;;;;1024014;28;19925;-77
2022/12/29 01:40:38;;;;;;;;;;;;;;;;;;1027377;28;21473;-77
2022/12/29 01:41:09;;;;;;;;;;;;;;;;;;1027697;28;19973;-77
2022/12/29 01:41:40;;;;;;;;;;;;;;;;;;1028297;28;19910;-76
2022/12/29 01:42:11;;;;;;;;;;;;;;;;;;1019683;29;20386;-77
2022/12/29 01:42:42;;;;;;;;;;;;;;;;;;1020197;29;19943;-76
2022/12/29 01:43:13;;;;;;;;;;;;;;;;;;1022640;29;20293;-76
2022/12/29 01:43:44;;;;;;;;;;;;;;;;;;1023777;29;19945;-77
2022/12/29 01:44:15;;;;;;;;;;;;;;;;;;1024796;29;19998;-76
2022/12/29 01:44:45;;;;;;;;;;;;;;;;;;1023989;28;19974;-77
2022/12/29 01:45:16;;;;;;;;;;;;;;;;;;1028117;28;19914;-76
2022/12/29 01:45:47;;;;;;;;;;;;;;;;;;1023476;29;20005;-77
2022/12/29 01:46:18;;;;;;;;;;;;;;;;;;1023704;29;20593;-76
2022/12/29 01:46:49;;;;;;;;;;;;;;;;;;1024443;29;19917;-76
2022/12/29 01:47:20;;;;;;;;;;;;;;;;;;1022699;29;19964;-76
2022/12/29 01:47:51;;;;;;;;;;;;;;;;;;1019905;29;19915;-76
2022/12/29 01:48:21;;;;;;;;;;;;;;;;;;1023846;29;19992;-76
2022/12/29 01:48:52;;;;;;;;;;;;;;;;;;1027468;28;19921;-77
2022/12/29 01:49:23;;;;;;;;;;;;;;;;;;1028766;28;19914;-77
2022/12/29 01:49:54;;;;;;;;;;;;;;;;;;1027787;28;19914;-77
2022/12/29 01:50:25;;;;;;;;;;;;;;;;;;1023650;29;19911;-77
2022/12/29 01:50:56;;;;;;;;;;;;;;;;;;1023701;29;19918;-76
2022/12/29 01:51:27;;;;;;;;;;;;;;;;;;1023722;29;19917;-76
2022/12/29 01:51:58;;;;;;;;;;;;;;;;;;1024653;28;19915;-77
2022/12/29 01:52:28;;;;;;;;;;;;;;;;;;1023617;29;19942;-77
2022/12/29 01:52:59;;;;;;;;;;;;;;;;;;1023784;29;20020;-76
2022/12/29 01:53:30;;;;;;;;;;;;;;;;;;1023691;29;19921;-77
2022/12/29 01:54:01;;;;;;;;;;;;;;;;;;1023785;29;19989;-76
2022/12/29 01:54:32;;;;;;;;;;;;;;;;;;1024889;28;19911;-76
2022/12/29 01:55:03;;;;;;;;;;;;;;;;;;1028039;28;20065;-77
2022/12/29 01:55:34;;;;;;;;;;;;;;;;;;1027724;28;19989;-77
2022/12/29 01:56:04;;;;;;;;;;;;;;;;;;1028021;28;19911;-77
2022/12/29 01:56:35;;;;;;;;;;;;;;;;;;1028027;28;20377;-76
2022/12/29 01:57:06;;;;;;;;;;;;;;;;;;1028651;28;19920;-76
2022/12/29 01:57:37;;;;;;;;;;;;;;;;;;1023639;29;19921;-76
2022/12/29 01:58:08;;;;;;;;;;;;;;;;;;1023785;29;19928;-77
2022/12/29 01:58:39;;;;;;;;;;;;;;;;;;1019682;29;19910;-76
2022/12/29 01:59:11;;;;;;;;;;;;;;;;;;1019734;29;19946;-76
2022/12/29 01:59:41;;;;;;;;;;;;;;;;;;1016637;29;19915;-77
2022/12/29 02:00:13;;;;;;;;;;;;;;;;;;1016060;29;20082;-76
2022/12/29 02:00:44;;;;;;;;;;;;;;;;;;1018755;29;19915;-78
2022/12/29 02:01:15;;;;;;;;;;;;;;;;;;1020233;29;20058;-77
2022/12/29 02:01:46;;;;;;;;;;;;;;;;;;1024025;28;20021;-77
2022/12/29 02:02:16;;;;;;;;;;;;;;;;;;1028721;28;19911;-76
2022/12/29 02:02:47;;;;;;;;;;;;;;;;;;1027652;28;19918;-76
2022/12/29 02:03:18;;;;;;;;;;;;;;;;;;1028029;28;19914;-77
2022/12/29 02:03:49;;;;;;;;;;;;;;;;;;1024382;28;19922;-76
2022/12/29 02:04:20;;;;;;;;;;;;;;;;;;1027752;28;19922;-77
2022/12/29 02:04:51;;;;;;;;;;;;;;;;;;1024359;29;19949;-76
2022/12/29 02:05:22;;;;;;;;;;;;;;;;;;1023755;29;19914;-76
2022/12/29 02:05:53;;;;;;;;;;;;;;;;;;1019588;29;19915;-76
2022/12/29 02:06:25;;;;;;;;;;;;;;;;;;1018648;29;19942;-77
2022/12/29 02:06:56;;;;;;;;;;;;;;;;;;1023879;29;19917;-76
2022/12/29 02:07:27;;;;;;;;;;;;;;;;;;1022158;29;19981;-76
2022/12/29 02:07:58;;;;;;;;;;;;;;;;;;1024138;28;20366;-77
2022/12/29 02:08:29;;;;;;;;;;;;;;;;;;1023714;29;19922;-76
2022/12/29 02:08:59;;;;;;;;;;;;;;;;;;1023586;29;20484;-77
2022/12/29 02:09:30;;;;;;;;;;;;;;;;;;1019692;29;19915;-76
2022/12/29 02:10:01;;;;;;;;;;;;;;;;;;1020825;29;20646;-76
2022/12/29 02:10:32;;;;;;;;;;;;;;;;;;1023254;28;20009;-76
2022/12/29 02:11:03;;;;;;;;;;;;;;;;;;1027762;28;20444;-76
2022/12/29 02:11:34;;;;;;;;;;;;;;;;;;1027600;28;19921;-76
2022/12/29 02:12:05;;;;;;;;;;;;;;;;;;1023621;29;19915;-76
2022/12/29 02:12:35;;;;;;;;;;;;;;;;;;1020261;29;19914;-76
2022/12/29 02:13:06;;;;;;;;;;;;;;;;;;1019742;29;20010;-76
2022/12/29 02:13:37;;;;;;;;;;;;;;;;;;1019534;29;19921;-77
2022/12/29 02:14:08;;;;;;;;;;;;;;;;;;1023754;29;20778;-76
2022/12/29 02:14:39;;;;;;;;;;;;;;;;;;1023903;29;19915;-77
2022/12/29 02:15:10;;;;;;;;;;;;;;;;;;1024701;29;20390;-76
2022/12/29 02:15:41;;;;;;;;;;;;;;;;;;1026631;28;20016;-77
2022/12/29 02:16:11;;;;;;;;;;;;;;;;;;1027523;28;19914;-76
2022/12/29 02:16:42;;;;;;;;;;;;;;;;;;1027586;28;20009;-77
2022/12/29 02:17:13;;;;;;;;;;;;;;;;;;1027782;28;19910;-76
2022/12/29 02:17:44;;;;;;;;;;;;;;;;;;1028066;28;19910;-77
2022/12/29 02:18:15;;;;;;;;;;;;;;;;;;1027714;28;19960;-76
2022/12/29 02:18:46;;;;;;;;;;;;;;;;;;1027456;28;19910;-76
2022/12/29 02:19:17;;;;;;;;;;;;;;;;;;1027542;28;19910;-77
2022/12/29 02:19:48;;;;;;;;;;;;;;;;;;1027152;28;19910;-76
2022/12/29 02:20:18;;;;;;;;;;;;;;;;;;1024813;28;19913;-75
2022/12/29 02:20:49;;;;;;;;;;;;;;;;;;1027317;28;20013;-77
2022/12/29 02:21:20;;;;;;;;;;;;;;;;;;1027394;28;19917;-76
2022/12/29 02:21:51;;;;;;;;;;;;;;;;;;1027281;28;19937;-76
2022/12/29 02:22:22;;;;;;;;;;;;;;;;;;1027991;28;20008;-76
2022/12/29 02:22:53;;;;;;;;;;;;;;;;;;1027698;28;19954;-76
2022/12/29 02:23:24;;;;;;;;;;;;;;;;;;1027745;28;19945;-77
2022/12/29 02:23:54;;;;;;;;;;;;;;;;;;1027386;28;19910;-76
2022/12/29 02:24:25;;;;;;;;;;;;;;;;;;1027438;28;19910;-76
2022/12/29 02:24:56;;;;;;;;;;;;;;;;;;1023418;29;19914;-75
2022/12/29 02:25:27;;;;;;;;;;;;;;;;;;1020279;29;19914;-76
2022/12/29 02:25:58;;;;;;;;;;;;;;;;;;1019644;29;19907;-76
2022/12/29 02:26:29;;;;;;;;;;;;;;;;;;1022234;29;19938;-76
2022/12/29 02:27:00;;;;;;;;;;;;;;;;;;1019593;29;20002;-77
2022/12/29 02:27:30;;;;;;;;;;;;;;;;;;1015569;29;19911;-75
2022/12/29 02:28:01;;;;;;;;;;;;;;;;;;1020187;29;19997;-76
2022/12/29 02:28:32;;;;;;;;;;;;;;;;;;1019732;29;19911;-77
2022/12/29 02:29:03;;;;;;;;;;;;;;;;;;1019844;29;19911;-77
2022/12/29 02:29:34;;;;;;;;;;;;;;;;;;1018063;29;19993;-76
2022/12/29 02:30:05;;;;;;;;;;;;;;;;;;1019917;29;20321;-77
2022/12/29 02:30:36;;;;;;;;;;;;;;;;;;1024407;28;19962;-76
2022/12/29 02:31:06;;;;;;;;;;;;;;;;;;1027693;28;20441;-77
2022/12/29 02:31:37;;;;;;;;;;;;;;;;;;1023604;29;19911;-76
2022/12/29 02:32:08;;;;;;;;;;;;;;;;;;1023212;29;20393;-76
2022/12/29 02:32:39;;;;;;;;;;;;;;;;;;1023476;29;20049;-76
2022/12/29 02:33:10;;;;;;;;;;;;;;;;;;1024174;29;20385;-76
2022/12/29 02:33:41;;;;;;;;;;;;;;;;;;1023960;28;20017;-77
2022/12/29 02:34:12;;;;;;;;;;;;;;;;;;1027943;28;19910;-76
2022/12/29 02:34:43;;;;;;;;;;;;;;;;;;1027634;28;19906;-77
2022/12/29 02:35:13;;;;;;;;;;;;;;;;;;1028127;28;19972;-76
2022/12/29 02:35:44;;;;;;;;;;;;;;;;;;1023662;29;20010;-77
2022/12/29 02:36:19;;;;;;;;;;;;;;;;;;1024050;29;20103;-77
2022/12/29 02:36:50;;;;;;;;;;;;;;;;;;1022858;29;20038;-76
2022/12/29 02:37:21;;;;;;;;;;;;;;;;;;1023986;28;19914;-77
2022/12/29 02:37:51;;;;;;;;;;;;;;;;;;1023020;29;19989;-76
2022/12/29 02:38:22;;;;;;;;;;;;;;;;;;1023871;29;19935;-76
2022/12/29 02:38:53;;;;;;;;;;;;;;;;;;1023254;29;19914;-76
2022/12/29 02:39:24;;;;;;;;;;;;;;;;;;1023398;28;20410;-77
2022/12/29 02:39:55;;;;;;;;;;;;;;;;;;1024498;28;20033;-76
2022/12/29 02:40:26;;;;;;;;;;;;;;;;;;1024638;28;19914;-76
2022/12/29 02:40:57;;;;;;;;;;;;;;;;;;1023569;29;19915;-77
2022/12/29 02:41:28;;;;;;;;;;;;;;;;;;1023509;29;19911;-76
2022/12/29 02:41:59;;;;;;;;;;;;;;;;;;1022981;29;19942;-76
2022/12/29 02:42:29;;;;;;;;;;;;;;;;;;1023082;29;20009;-76
2022/12/29 02:43:00;;;;;;;;;;;;;;;;;;1023173;29;19950;-76
2022/12/29 02:43:31;;;;;;;;;;;;;;;;;;1023974;28;19949;-78
2022/12/29 02:44:02;;;;;;;;;;;;;;;;;;1023407;29;19965;-77
2022/12/29 02:44:33;;;;;;;;;;;;;;;;;;1023260;29;20396;-76
2022/12/29 02:45:04;;;;;;;;;;;;;;;;;;1019255;29;20023;-76
2022/12/29 02:45:34;;;;;;;;;;;;;;;;;;1019544;29;20017;-77
2022/12/29 02:46:05;;;;;;;;;;;;;;;;;;1019429;29;19911;-77
2022/12/29 02:46:36;;;;;;;;;;;;;;;;;;1022472;29;19918;-76
2022/12/29 02:47:07;;;;;;;;;;;;;;;;;;1023173;29;19917;-76
2022/12/29 02:47:38;;;;;;;;;;;;;;;;;;1023393;29;19911;-76
2022/12/29 02:48:09;;;;;;;;;;;;;;;;;;1023213;29;20466;-76
2022/12/29 02:48:40;;;;;;;;;;;;;;;;;;1023038;29;19930;-76
2022/12/29 02:49:11;;;;;;;;;;;;;;;;;;1023947;29;20384;-77
2022/12/29 02:49:41;;;;;;;;;;;;;;;;;;1023276;29;19914;-76
2022/12/29 02:50:12;;;;;;;;;;;;;;;;;;1023455;28;19910;-76
2022/12/29 02:50:43;;;;;;;;;;;;;;;;;;1027546;28;19910;-76
2022/12/29 02:51:14;;;;;;;;;;;;;;;;;;1027869;28;19997;-77
2022/12/29 02:51:45;;;;;;;;;;;;;;;;;;1028586;28;19910;-76
2022/12/29 02:52:16;;;;;;;;;;;;;;;;;;1027566;28;19930;-76
2022/12/29 02:52:47;;;;;;;;;;;;;;;;;;1027548;28;20435;-76
2022/12/29 02:54:40;;;;;;;;;;;;;;;;;;1027717;28;19910;-77
2022/12/29 02:54:58;;;;;;;;;;;;;;;;;;1027792;28;19980;-77
2022/12/29 02:55:29;;;;;;;;;;;;;;;;;;1023003;29;20000;-77
2022/12/29 02:56:00;;;;;;;;;;;;;;;;;;1023499;29;19914;-76
2022/12/29 02:56:31;;;;;;;;;;;;;;;;;;1023431;29;20428;-77
2022/12/29 02:57:02;;;;;;;;;;;;;;;;;;1023979;28;20013;-76
2022/12/29 02:57:33;;;;;;;;;;;;;;;;;;1027399;28;19914;-77
2022/12/29 02:58:03;;;;;;;;;;;;;;;;;;1027872;28;20842;-78
2022/12/29 02:58:34;;;;;;;;;;;;;;;;;;1023333;29;19914;-76
2022/12/29 02:59:05;;;;;;;;;;;;;;;;;;1023293;28;19964;-76
2022/12/29 02:59:36;;;;;;;;;;;;;;;;;;1023967;29;19921;-77
2022/12/29 03:00:07;;;;;;;;;;;;;;;;;;1023691;28;20370;-76
2022/12/29 03:00:38;;;;;;;;;;;;;;;;;;1025682;28;19914;-76
2022/12/29 03:01:09;;;;;;;;;;;;;;;;;;1019210;29;19915;-76
2022/12/29 03:01:40;;;;;;;;;;;;;;;;;;1015807;29;20010;-76
2022/12/29 03:02:16;;;;;;;;;;;;;;;;;;1020366;29;19915;-76
2022/12/29 03:02:47;;;;;;;;;;;;;;;;;;1023303;29;20218;-76
2022/12/29 03:03:18;;;;;;;;;;;;;;;;;;1023624;29;20657;-77
2022/12/29 03:03:49;;;;;;;;;;;;;;;;;;1022941;28;19930;-76
2022/12/29 03:04:20;;;;;;;;;;;;;;;;;;1019881;29;20544;-78
2022/12/29 03:04:51;;;;;;;;;;;;;;;;;;1019791;29;19921;-77
2022/12/29 03:05:22;;;;;;;;;;;;;;;;;;1019727;29;20005;-76
2022/12/29 03:05:53;;;;;;;;;;;;;;;;;;1019248;29;20266;-76
2022/12/29 03:06:23;;;;;;;;;;;;;;;;;;1019769;29;20491;-77
2022/12/29 03:06:54;;;;;;;;;;;;;;;;;;1023886;29;19915;-78
2022/12/29 03:07:25;;;;;;;;;;;;;;;;;;1023890;29;20472;-76
2022/12/29 03:07:56;;;;;;;;;;;;;;;;;;1023437;29;19910;-77
2022/12/29 03:08:27;;;;;;;;;;;;;;;;;;1023425;29;19914;-77
2022/12/29 03:08:58;;;;;;;;;;;;;;;;;;1019628;29;20006;-77
2022/12/29 03:09:29;;;;;;;;;;;;;;;;;;1023605;29;20390;-76
2022/12/29 03:09:59;;;;;;;;;;;;;;;;;;1024036;29;19922;-76
2022/12/29 03:10:31;;;;;;;;;;;;;;;;;;1023443;29;19964;-76
2022/12/29 03:11:02;;;;;;;;;;;;;;;;;;1019725;29;19962;-76
2022/12/29 03:12:23;;;;;;;;;;;;;;;;;;1027822;28;20004;-76
2022/12/29 03:16:12;;;;;;;;;;;;;;;;;;1027792;28;19988;-76
2022/12/29 03:16:43;;;;;;;;;;;;;;;;;;1023407;29;19915;-76
2022/12/29 03:17:14;;;;;;;;;;;;;;;;;;1023854;29;19941;-77
2022/12/29 03:17:45;;;;;;;;;;;;;;;;;;1023901;29;19914;-76
2022/12/29 03:18:16;;;;;;;;;;;;;;;;;;1023503;29;19914;-76
2022/12/29 03:18:47;;;;;;;;;;;;;;;;;;1023016;29;19918;-76
2022/12/29 03:19:18;;;;;;;;;;;;;;;;;;1023569;29;19921;-76
2022/12/29 03:19:49;;;;;;;;;;;;;;;;;;1023591;29;19966;-77
2022/12/29 03:20:20;;;;;;;;;;;;;;;;;;1024889;29;20362;-76
2022/12/29 03:20:51;;;;;;;;;;;;;;;;;;1024342;28;20378;-76
2022/12/29 03:21:21;;;;;;;;;;;;;;;;;;1028105;28;20009;-76
2022/12/29 03:22:42;;;;;;;;;;;;;;;;;;1028588;28;19917;-77
2022/12/29 03:23:12;;;;;;;;;;;;;;;;;;1023243;29;19922;-76
2022/12/29 03:23:43;;;;;;;;;;;;;;;;;;1019500;29;20409;-77
2022/12/29 03:24:14;;;;;;;;;;;;;;;;;;1019558;29;19982;-76
2022/12/29 03:24:46;;;;;;;;;;;;;;;;;;1019674;29;20774;-77
2022/12/29 03:25:17;;;;;;;;;;;;;;;;;;1024258;28;19918;-76
2022/12/29 03:25:48;;;;;;;;;;;;;;;;;;1023288;29;19914;-76
2022/12/29 03:26:19;;;;;;;;;;;;;;;;;;1023216;29;20043;-77
2022/12/29 03:26:50;;;;;;;;;;;;;;;;;;1019286;29;19922;-76
2022/12/29 03:27:20;;;;;;;;;;;;;;;;;;1019552;29;19937;-76
2022/12/29 03:27:51;;;;;;;;;;;;;;;;;;1024158;29;19950;-77
2022/12/29 03:28:22;;;;;;;;;;;;;;;;;;1023729;28;19921;-77
2022/12/29 03:28:53;;;;;;;;;;;;;;;;;;1027468;28;20341;-76
2022/12/29 03:29:24;;;;;;;;;;;;;;;;;;1023242;29;20416;-77
2022/12/29 03:29:55;;;;;;;;;;;;;;;;;;1023547;29;20321;-77
2022/12/29 03:30:26;;;;;;;;;;;;;;;;;;1024339;29;19915;-76
2022/12/29 03:30:57;;;;;;;;;;;;;;;;;;1023502;28;20349;-76
2022/12/29 03:31:27;;;;;;;;;;;;;;;;;;1023607;29;19914;-76
2022/12/29 03:31:58;;;;;;;;;;;;;;;;;;1019031;29;19915;-76
2022/12/29 03:32:29;;;;;;;;;;;;;;;;;;1019403;29;19914;-77
2022/12/29 03:33:00;;;;;;;;;;;;;;;;;;1022492;29;19920;-75
2022/12/29 03:33:31;;;;;;;;;;;;;;;;;;1022730;29;20001;-76
2022/12/29 03:34:02;;;;;;;;;;;;;;;;;;1023427;29;19922;-76
2022/12/29 03:34:33;;;;;;;;;;;;;;;;;;1019207;29;19921;-76
2022/12/29 03:35:03;;;;;;;;;;;;;;;;;;1019477;29;19922;-77
2022/12/29 03:35:34;;;;;;;;;;;;;;;;;;1020187;29;19915;-76
2022/12/29 03:36:05;;;;;;;;;;;;;;;;;;1019285;29;19914;-76
2022/12/29 03:36:36;;;;;;;;;;;;;;;;;;1019214;29;19915;-76
2022/12/29 03:37:07;;;;;;;;;;;;;;;;;;1019342;29;20267;-76
2022/12/29 03:37:38;;;;;;;;;;;;;;;;;;1019408;29;19915;-77
2022/12/29 03:38:10;;;;;;;;;;;;;;;;;;1020504;29;19914;-77
2022/12/29 03:38:41;;;;;;;;;;;;;;;;;;1023182;29;19926;-77
2022/12/29 03:39:12;;;;;;;;;;;;;;;;;;1023386;29;19914;-76
2022/12/29 03:39:44;;;;;;;;;;;;;;;;;;1019358;29;20009;-76
2022/12/29 03:40:14;;;;;;;;;;;;;;;;;;1023232;29;19914;-76
2022/12/29 03:40:46;;;;;;;;;;;;;;;;;;1024105;29;19918;-76
2022/12/29 03:41:16;;;;;;;;;;;;;;;;;;1019583;29;19915;-76
2022/12/29 03:41:47;;;;;;;;;;;;;;;;;;1023094;29;19914;-77
2022/12/29 03:42:18;;;;;;;;;;;;;;;;;;1023666;29;19914;-76
2022/12/29 03:42:49;;;;;;;;;;;;;;;;;;1019294;29;20572;-75
2022/12/29 03:43:20;;;;;;;;;;;;;;;;;;1024255;29;19915;-77
2022/12/29 03:43:51;;;;;;;;;;;;;;;;;;1023041;29;19941;-77
2022/12/29 03:44:22;;;;;;;;;;;;;;;;;;1023879;28;19946;-77
2022/12/29 03:44:52;;;;;;;;;;;;;;;;;;1023069;29;19919;-77
2022/12/29 03:45:23;;;;;;;;;;;;;;;;;;1023355;29;20391;-76
2022/12/29 03:45:54;;;;;;;;;;;;;;;;;;1024296;29;19910;-76
2022/12/29 03:46:25;;;;;;;;;;;;;;;;;;1023676;28;20429;-76
2022/12/29 03:46:56;;;;;;;;;;;;;;;;;;1026808;28;20021;-76
2022/12/29 03:47:27;;;;;;;;;;;;;;;;;;1027698;28;20301;-77
2022/12/29 03:47:58;;;;;;;;;;;;;;;;;;1027414;28;19920;-77
2022/12/29 03:48:29;;;;;;;;;;;;;;;;;;1028497;28;19967;-77
2022/12/29 03:48:59;;;;;;;;;;;;;;;;;;1023258;29;19914;-77
2022/12/29 03:49:30;;;;;;;;;;;;;;;;;;1023340;29;20009;-76
2022/12/29 03:50:01;;;;;;;;;;;;;;;;;;1023338;29;19914;-77
2022/12/29 03:50:32;;;;;;;;;;;;;;;;;;1023592;28;19985;-77
2022/12/29 03:51:03;;;;;;;;;;;;;;;;;;1023859;29;19918;-76
2022/12/29 03:51:34;;;;;;;;;;;;;;;;;;1023352;29;20404;-76
2022/12/29 03:52:05;;;;;;;;;;;;;;;;;;1023216;29;19915;-77
2022/12/29 03:52:36;;;;;;;;;;;;;;;;;;1022080;29;19939;-77
2022/12/29 03:53:06;;;;;;;;;;;;;;;;;;1023303;29;19961;-77
2022/12/29 03:53:37;;;;;;;;;;;;;;;;;;1023695;28;19915;-76
2022/12/29 03:54:08;;;;;;;;;;;;;;;;;;1028014;28;20391;-76
2022/12/29 03:54:39;;;;;;;;;;;;;;;;;;1022953;28;19915;-76
2022/12/29 03:55:10;;;;;;;;;;;;;;;;;;1023330;29;20267;-76
2022/12/29 03:55:41;;;;;;;;;;;;;;;;;;1023272;29;19920;-77
2022/12/29 03:56:12;;;;;;;;;;;;;;;;;;1020739;29;19921;-76
2022/12/29 03:56:42;;;;;;;;;;;;;;;;;;1027007;28;19910;-77
2022/12/29 03:57:13;;;;;;;;;;;;;;;;;;1025930;28;19910;-76
2022/12/29 03:57:44;;;;;;;;;;;;;;;;;;1023236;29;20001;-76
2022/12/29 03:58:15;;;;;;;;;;;;;;;;;;1023432;29;20010;-76
2022/12/29 03:58:46;;;;;;;;;;;;;;;;;;1021310;29;19967;-77
2022/12/29 03:59:17;;;;;;;;;;;;;;;;;;1023735;28;19940;-76
2022/12/29 03:59:48;;;;;;;;;;;;;;;;;;1022857;29;20627;-77
2022/12/29 04:00:18;;;;;;;;;;;;;;;;;;1021696;29;19942;-77
2022/12/29 04:00:49;;;;;;;;;;;;;;;;;;1023042;29;20274;-76
2022/12/29 04:01:20;;;;;;;;;;;;;;;;;;1027301;28;19910;-76
2022/12/29 04:01:51;;;;;;;;;;;;;;;;;;1031806;28;20349;-75
2022/12/29 04:02:23;;;;;;;;;;;;;;;;;;1027105;28;19914;-76
2022/12/29 04:02:54;;;;;;;;;;;;;;;;;;1022944;29;19918;-76
2022/12/29 04:03:25;;;;;;;;;;;;;;;;;;1023243;29;19911;-76
2022/12/29 04:03:56;;;;;;;;;;;;;;;;;;1023773;28;20281;-77
2022/12/29 04:04:27;;;;;;;;;;;;;;;;;;1026521;28;19946;-77